sensor_id;sensor_type;location;lat;lon;timestamp;temperature;humidity
11446;DHT22;5779;64.178;15.432;2023-04-03T00:01:17;-11.30;99.90
11446;DHT22;5779;64.178;15.432;2023-04-03T00:04:04;-11.40;99.90
11446;DHT22;5779;64.178;15.432;2023-04-03T00:06:51;-11.50;99.90
11446;DHT22;5779;64.178;15.432;2023-04-03T00:09:38;-11.40;99.90
11446;DHT22;5779;64.178;15.432;2023-04-03T00:12:26;-11.50;99.90
11446;DHT22;5779;64.178;15.432;2023-04-03T00:15:13;-11.50;99.90
11446;DHT22;5779;64.178;15.432;2023-04-03T00:18:01;-11.60;99.90
11446;DHT22;5779;64.178;15.432;2023-04-03T00:20:48;-11.60;99.90
11446;DHT22;5779;64.178;15.432;2023-04-03T00:23:35;-11.60;99.90
11446;DHT22;5779;64.178;15.432;2023-04-03T00:26:21;-11.50;99.90
11446;DHT22;5779;64.178;15.432;2023-04-03T00:29:09;-11.40;99.90
11446;DHT22;5779;64.178;15.432;2023-04-03T00:31:57;-11.40;99.90
11446;DHT22;5779;64.178;15.432;2023-04-03T00:34:44;-11.40;99.90
11446;DHT22;5779;64.178;15.432;2023-04-03T00:37:31;-11.40;99.90
11446;DHT22;5779;64.178;15.432;2023-04-03T00:40:18;-11.30;99.90
11446;DHT22;5779;64.178;15.432;2023-04-03T00:43:11;-11.40;99.90
11446;DHT22;5779;64.178;15.432;2023-04-03T00:46:00;-11.40;99.90
11446;DHT22;5779;64.178;15.432;2023-04-03T00:48:48;-11.40;99.90
11446;DHT22;5779;64.178;15.432;2023-04-03T00:51:35;-11.40;99.90
11446;DHT22;5779;64.178;15.432;2023-04-03T00:54:22;-11.60;99.90
11446;DHT22;5779;64.178;15.432;2023-04-03T00:57:09;-11.60;99.90
11446;DHT22;5779;64.178;15.432;2023-04-03T00:59:59;-11.60;99.90
11446;DHT22;5779;64.178;15.432;2023-04-03T01:02:50;-11.60;99.90
11446;DHT22;5779;64.178;15.432;2023-04-03T01:05:37;-11.60;99.90
11446;DHT22;5779;64.178;15.432;2023-04-03T01:08:24;-11.80;99.90
11446;DHT22;5779;64.178;15.432;2023-04-03T01:11:11;-11.70;99.90
11446;DHT22;5779;64.178;15.432;2023-04-03T01:13:58;-11.90;99.90
11446;DHT22;5779;64.178;15.432;2023-04-03T01:16:52;-11.80;99.90
11446;DHT22;5779;64.178;15.432;2023-04-03T01:19:43;-11.80;99.90
11446;DHT22;5779;64.178;15.432;2023-04-03T01:22:43;-11.90;99.90
11446;DHT22;5779;64.178;15.432;2023-04-03T01:25:32;-11.80;99.90
11446;DHT22;5779;64.178;15.432;2023-04-03T01:28:21;-11.80;99.90
11446;DHT22;5779;64.178;15.432;2023-04-03T01:31:14;-11.90;99.90
11446;DHT22;5779;64.178;15.432;2023-04-03T01:34:04;-12.00;99.90
11446;DHT22;5779;64.178;15.432;2023-04-03T01:36:51;-12.00;99.90
11446;DHT22;5779;64.178;15.432;2023-04-03T01:39:38;-12.20;99.90
11446;DHT22;5779;64.178;15.432;2023-04-03T01:42:25;-12.30;99.90
11446;DHT22;5779;64.178;15.432;2023-04-03T01:45:12;-12.30;99.90
11446;DHT22;5779;64.178;15.432;2023-04-03T01:47:59;-12.50;99.90
11446;DHT22;5779;64.178;15.432;2023-04-03T01:50:47;-12.50;99.90
11446;DHT22;5779;64.178;15.432;2023-04-03T01:53:33;-12.60;99.90
11446;DHT22;5779;64.178;15.432;2023-04-03T01:56:21;-12.80;99.90
11446;DHT22;5779;64.178;15.432;2023-04-03T01:59:07;-12.90;99.90
11446;DHT22;5779;64.178;15.432;2023-04-03T02:01:54;-12.90;99.90
11446;DHT22;5779;64.178;15.432;2023-04-03T02:04:41;-12.90;99.90
11446;DHT22;5779;64.178;15.432;2023-04-03T02:07:29;-12.90;99.90
11446;DHT22;5779;64.178;15.432;2023-04-03T02:10:16;-12.90;99.90
11446;DHT22;5779;64.178;15.432;2023-04-03T02:13:06;-13.00;99.90
11446;DHT22;5779;64.178;15.432;2023-04-03T02:15:52;-13.10;99.90
11446;DHT22;5779;64.178;15.432;2023-04-03T02:18:39;-13.00;99.90
11446;DHT22;5779;64.178;15.432;2023-04-03T02:21:26;-12.90;99.90
11446;DHT22;5779;64.178;15.432;2023-04-03T02:24:16;-12.90;99.90
11446;DHT22;5779;64.178;15.432;2023-04-03T02:27:09;-12.90;99.90
11446;DHT22;5779;64.178;15.432;2023-04-03T02:29:59;-13.00;99.90
11446;DHT22;5779;64.178;15.432;2023-04-03T02:32:52;-13.00;99.90
11446;DHT22;5779;64.178;15.432;2023-04-03T02:35:44;-12.90;99.90
11446;DHT22;5779;64.178;15.432;2023-04-03T02:38:40;-13.00;99.90
11446;DHT22;5779;64.178;15.432;2023-04-03T02:41:30;-13.10;99.90
11446;DHT22;5779;64.178;15.432;2023-04-03T02:44:20;-13.20;99.90
11446;DHT22;5779;64.178;15.432;2023-04-03T02:47:08;-13.20;99.90
11446;DHT22;5779;64.178;15.432;2023-04-03T02:49:55;-13.60;99.90
11446;DHT22;5779;64.178;15.432;2023-04-03T02:52:42;-14.20;99.90
11446;DHT22;5779;64.178;15.432;2023-04-03T02:55:29;-14.20;99.90
11446;DHT22;5779;64.178;15.432;2023-04-03T02:58:17;-13.90;99.90
11446;DHT22;5779;64.178;15.432;2023-04-03T03:01:05;-13.80;99.90
11446;DHT22;5779;64.178;15.432;2023-04-03T03:03:52;-13.60;99.90
11446;DHT22;5779;64.178;15.432;2023-04-03T03:06:38;-13.60;99.90
11446;DHT22;5779;64.178;15.432;2023-04-03T03:09:32;-13.50;99.90
11446;DHT22;5779;64.178;15.432;2023-04-03T03:12:21;-13.60;99.90
11446;DHT22;5779;64.178;15.432;2023-04-03T03:15:11;-14.00;99.90
11446;DHT22;5779;64.178;15.432;2023-04-03T03:17:58;-14.00;99.90
11446;DHT22;5779;64.178;15.432;2023-04-03T03:20:44;-14.00;99.90
11446;DHT22;5779;64.178;15.432;2023-04-03T03:23:32;-13.90;99.90
11446;DHT22;5779;64.178;15.432;2023-04-03T03:26:20;-13.80;99.90
11446;DHT22;5779;64.178;15.432;2023-04-03T03:29:07;-13.70;99.90
11446;DHT22;5779;64.178;15.432;2023-04-03T03:31:55;-13.90;99.90
11446;DHT22;5779;64.178;15.432;2023-04-03T03:34:42;-13.90;99.90
11446;DHT22;5779;64.178;15.432;2023-04-03T03:37:29;-14.20;99.90
11446;DHT22;5779;64.178;15.432;2023-04-03T03:40:22;-14.30;99.90
11446;DHT22;5779;64.178;15.432;2023-04-03T03:43:10;-14.30;99.90
11446;DHT22;5779;64.178;15.432;2023-04-03T03:45:56;-14.10;99.90
11446;DHT22;5779;64.178;15.432;2023-04-03T03:48:45;-14.00;99.90
11446;DHT22;5779;64.178;15.432;2023-04-03T03:51:31;-13.90;99.90
11446;DHT22;5779;64.178;15.432;2023-04-03T03:54:21;-13.90;99.90
11446;DHT22;5779;64.178;15.432;2023-04-03T03:57:14;-13.90;99.90
11446;DHT22;5779;64.178;15.432;2023-04-03T04:00:01;-13.90;99.90
11446;DHT22;5779;64.178;15.432;2023-04-03T04:02:48;-14.00;99.90
11446;DHT22;5779;64.178;15.432;2023-04-03T04:05:37;-14.20;99.90
11446;DHT22;5779;64.178;15.432;2023-04-03T04:08:26;-14.20;99.90
11446;DHT22;5779;64.178;15.432;2023-04-03T04:11:18;-14.30;99.90
11446;DHT22;5779;64.178;15.432;2023-04-03T04:14:05;-14.30;99.90
11446;DHT22;5779;64.178;15.432;2023-04-03T04:16:52;-14.30;99.90
11446;DHT22;5779;64.178;15.432;2023-04-03T04:19:39;-14.30;99.90
11446;DHT22;5779;64.178;15.432;2023-04-03T04:22:27;-14.30;99.90
11446;DHT22;5779;64.178;15.432;2023-04-03T04:25:13;-14.50;99.90
11446;DHT22;5779;64.178;15.432;2023-04-03T04:28:00;-14.60;99.90
11446;DHT22;5779;64.178;15.432;2023-04-03T04:30:48;-14.50;99.90
11446;DHT22;5779;64.178;15.432;2023-04-03T04:33:35;-14.50;99.90
11446;DHT22;5779;64.178;15.432;2023-04-03T04:36:22;-14.50;99.90
11446;DHT22;5779;64.178;15.432;2023-04-03T04:39:10;-14.40;99.90
11446;DHT22;5779;64.178;15.432;2023-04-03T04:41:57;-14.40;99.90
11446;DHT22;5779;64.178;15.432;2023-04-03T04:44:44;-14.60;99.90
11446;DHT22;5779;64.178;15.432;2023-04-03T04:47:30;-15.00;99.90
11446;DHT22;5779;64.178;15.432;2023-04-03T04:50:17;-15.70;99.90
11446;DHT22;5779;64.178;15.432;2023-04-03T04:53:05;-15.90;99.90
11446;DHT22;5779;64.178;15.432;2023-04-03T04:55:53;-16.00;99.90
11446;DHT22;5779;64.178;15.432;2023-04-03T04:58:39;-15.80;99.90
11446;DHT22;5779;64.178;15.432;2023-04-03T05:01:26;-15.80;99.90
11446;DHT22;5779;64.178;15.432;2023-04-03T05:04:14;-15.70;99.90
11446;DHT22;5779;64.178;15.432;2023-04-03T05:07:00;-15.60;99.90
11446;DHT22;5779;64.178;15.432;2023-04-03T05:09:47;-15.20;99.90
11446;DHT22;5779;64.178;15.432;2023-04-03T05:12:37;-14.90;99.90
11446;DHT22;5779;64.178;15.432;2023-04-03T05:15:25;-15.70;99.90
11446;DHT22;5779;64.178;15.432;2023-04-03T05:18:12;-15.40;99.90
11446;DHT22;5779;64.178;15.432;2023-04-03T05:20:58;-14.90;99.90
11446;DHT22;5779;64.178;15.432;2023-04-03T05:23:45;-14.40;99.90
11446;DHT22;5779;64.178;15.432;2023-04-03T05:26:32;-13.70;99.90
11446;DHT22;5779;64.178;15.432;2023-04-03T05:29:20;-13.30;99.90
11446;DHT22;5779;64.178;15.432;2023-04-03T05:32:07;-12.90;99.90
11446;DHT22;5779;64.178;15.432;2023-04-03T05:34:54;-12.60;99.90
11446;DHT22;5779;64.178;15.432;2023-04-03T05:37:41;-12.60;99.90
11446;DHT22;5779;64.178;15.432;2023-04-03T05:40:28;-12.70;99.90
11446;DHT22;5779;64.178;15.432;2023-04-03T05:43:14;-13.00;99.90
11446;DHT22;5779;64.178;15.432;2023-04-03T05:46:02;-13.00;99.90
11446;DHT22;5779;64.178;15.432;2023-04-03T05:48:49;-12.80;99.90
11446;DHT22;5779;64.178;15.432;2023-04-03T05:51:40;-12.30;99.90
11446;DHT22;5779;64.178;15.432;2023-04-03T05:54:28;-11.90;99.90
11446;DHT22;5779;64.178;15.432;2023-04-03T05:57:15;-11.40;99.90
11446;DHT22;5779;64.178;15.432;2023-04-03T06:00:04;-11.10;99.90
11446;DHT22;5779;64.178;15.432;2023-04-03T06:02:52;-11.10;99.90
11446;DHT22;5779;64.178;15.432;2023-04-03T06:05:39;-10.70;99.90
11446;DHT22;5779;64.178;15.432;2023-04-03T06:08:26;-10.40;99.90
11446;DHT22;5779;64.178;15.432;2023-04-03T06:11:13;-10.40;99.90
11446;DHT22;5779;64.178;15.432;2023-04-03T06:14:00;-10.60;99.90
11446;DHT22;5779;64.178;15.432;2023-04-03T06:16:48;-11.10;99.90
11446;DHT22;5779;64.178;15.432;2023-04-03T06:19:36;-11.40;99.90
11446;DHT22;5779;64.178;15.432;2023-04-03T06:22:23;-11.50;99.90
11446;DHT22;5779;64.178;15.432;2023-04-03T06:25:10;-11.30;99.90
11446;DHT22;5779;64.178;15.432;2023-04-03T06:27:57;-10.90;99.90
11446;DHT22;5779;64.178;15.432;2023-04-03T06:30:44;-10.40;99.90
11446;DHT22;5779;64.178;15.432;2023-04-03T06:33:31;-10.00;99.90
11446;DHT22;5779;64.178;15.432;2023-04-03T06:36:20;-9.50;99.90
11446;DHT22;5779;64.178;15.432;2023-04-03T06:39:07;-9.00;99.90
11446;DHT22;5779;64.178;15.432;2023-04-03T06:41:53;-8.90;99.90
11446;DHT22;5779;64.178;15.432;2023-04-03T06:44:40;-8.40;99.90
11446;DHT22;5779;64.178;15.432;2023-04-03T06:47:27;-8.40;99.90
11446;DHT22;5779;64.178;15.432;2023-04-03T06:50:14;-8.60;99.90
11446;DHT22;5779;64.178;15.432;2023-04-03T06:53:03;-8.50;99.90
11446;DHT22;5779;64.178;15.432;2023-04-03T06:55:51;-8.20;99.90
11446;DHT22;5779;64.178;15.432;2023-04-03T06:58:38;-7.70;99.90
11446;DHT22;5779;64.178;15.432;2023-04-03T07:01:27;-7.20;99.90
11446;DHT22;5779;64.178;15.432;2023-04-03T07:04:14;-6.70;99.90
11446;DHT22;5779;64.178;15.432;2023-04-03T07:07:01;-6.40;99.90
11446;DHT22;5779;64.178;15.432;2023-04-03T07:09:49;-6.10;99.90
11446;DHT22;5779;64.178;15.432;2023-04-03T07:12:36;-5.90;99.90
11446;DHT22;5779;64.178;15.432;2023-04-03T07:15:22;-5.60;99.90
11446;DHT22;5779;64.178;15.432;2023-04-03T07:18:09;-5.50;99.90
11446;DHT22;5779;64.178;15.432;2023-04-03T07:20:56;-5.30;99.90
11446;DHT22;5779;64.178;15.432;2023-04-03T07:23:43;-4.90;99.90
11446;DHT22;5779;64.178;15.432;2023-04-03T07:26:31;-4.70;99.90
11446;DHT22;5779;64.178;15.432;2023-04-03T07:29:18;-4.40;99.90
11446;DHT22;5779;64.178;15.432;2023-04-03T07:32:06;-4.20;99.90
11446;DHT22;5779;64.178;15.432;2023-04-03T07:34:53;-4.00;99.90
11446;DHT22;5779;64.178;15.432;2023-04-03T07:37:40;-3.90;99.90
11446;DHT22;5779;64.178;15.432;2023-04-03T07:40:27;-3.70;99.90
11446;DHT22;5779;64.178;15.432;2023-04-03T07:43:15;-3.60;99.90
11446;DHT22;5779;64.178;15.432;2023-04-03T07:46:05;-3.30;99.90
11446;DHT22;5779;64.178;15.432;2023-04-03T07:48:51;-3.20;99.90
11446;DHT22;5779;64.178;15.432;2023-04-03T07:51:38;-3.00;99.90
11446;DHT22;5779;64.178;15.432;2023-04-03T07:54:25;-3.20;99.90
11446;DHT22;5779;64.178;15.432;2023-04-03T07:57:12;-3.50;99.90
11446;DHT22;5779;64.178;15.432;2023-04-03T08:00:00;-3.40;99.90
11446;DHT22;5779;64.178;15.432;2023-04-03T08:02:48;-3.20;99.90
11446;DHT22;5779;64.178;15.432;2023-04-03T08:05:37;-3.00;99.90
11446;DHT22;5779;64.178;15.432;2023-04-03T08:08:24;-2.90;99.90
11446;DHT22;5779;64.178;15.432;2023-04-03T08:11:12;-2.70;99.90
11446;DHT22;5779;64.178;15.432;2023-04-03T08:13:58;-2.50;99.90
11446;DHT22;5779;64.178;15.432;2023-04-03T08:16:47;-2.30;99.90
11446;DHT22;5779;64.178;15.432;2023-04-03T08:19:34;-2.20;99.90
11446;DHT22;5779;64.178;15.432;2023-04-03T08:22:21;-2.10;99.90
11446;DHT22;5779;64.178;15.432;2023-04-03T08:25:09;-2.00;99.90
11446;DHT22;5779;64.178;15.432;2023-04-03T08:27:55;-1.90;99.90
11446;DHT22;5779;64.178;15.432;2023-04-03T08:30:43;-1.80;99.90
11446;DHT22;5779;64.178;15.432;2023-04-03T08:33:33;-2.00;99.90
11446;DHT22;5779;64.178;15.432;2023-04-03T08:36:22;-1.90;99.90
11446;DHT22;5779;64.178;15.432;2023-04-03T08:39:09;-1.80;99.90
11446;DHT22;5779;64.178;15.432;2023-04-03T08:41:58;-2.10;99.90
11446;DHT22;5779;64.178;15.432;2023-04-03T08:44:50;-2.10;99.90
11446;DHT22;5779;64.178;15.432;2023-04-03T08:47:45;-1.80;99.90
11446;DHT22;5779;64.178;15.432;2023-04-03T08:50:39;-1.50;99.90
11446;DHT22;5779;64.178;15.432;2023-04-03T08:53:29;-1.40;99.90
11446;DHT22;5779;64.178;15.432;2023-04-03T08:56:18;-1.20;99.90
11446;DHT22;5779;64.178;15.432;2023-04-03T08:59:10;-1.10;99.90
11446;DHT22;5779;64.178;15.432;2023-04-03T09:02:00;-1.10;99.90
11446;DHT22;5779;64.178;15.432;2023-04-03T09:04:49;-1.30;99.90
11446;DHT22;5779;64.178;15.432;2023-04-03T09:07:42;-1.20;99.90
11446;DHT22;5779;64.178;15.432;2023-04-03T09:10:30;-1.10;99.90
11446;DHT22;5779;64.178;15.432;2023-04-03T09:13:24;-1.00;99.90
11446;DHT22;5779;64.178;15.432;2023-04-03T09:16:21;-1.10;99.90
11446;DHT22;5779;64.178;15.432;2023-04-03T09:19:18;-1.10;99.90
11446;DHT22;5779;64.178;15.432;2023-04-03T09:22:16;-0.90;99.90
11446;DHT22;5779;64.178;15.432;2023-04-03T09:25:11;-0.60;99.90
11446;DHT22;5779;64.178;15.432;2023-04-03T09:28:00;-0.70;99.90
11446;DHT22;5779;64.178;15.432;2023-04-03T09:30:46;-0.40;99.90
11446;DHT22;5779;64.178;15.432;2023-04-03T09:33:34;-0.10;99.90
11446;DHT22;5779;64.178;15.432;2023-04-03T09:36:42;0.20;99.90
11446;DHT22;5779;64.178;15.432;2023-04-03T09:39:29;0.40;99.90
11446;DHT22;5779;64.178;15.432;2023-04-03T09:42:20;0.50;99.90
11446;DHT22;5779;64.178;15.432;2023-04-03T09:45:22;0.50;99.90
11446;DHT22;5779;64.178;15.432;2023-04-03T09:48:16;0.90;99.90
11446;DHT22;5779;64.178;15.432;2023-04-03T09:51:04;0.80;99.90
11446;DHT22;5779;64.178;15.432;2023-04-03T09:53:51;0.70;99.90
11446;DHT22;5779;64.178;15.432;2023-04-03T09:56:38;0.70;99.90
11446;DHT22;5779;64.178;15.432;2023-04-03T09:59:26;1.10;99.90
11446;DHT22;5779;64.178;15.432;2023-04-03T10:02:30;1.50;99.90
11446;DHT22;5779;64.178;15.432;2023-04-03T10:05:28;1.60;99.90
11446;DHT22;5779;64.178;15.432;2023-04-03T10:08:23;1.50;99.90
11446;DHT22;5779;64.178;15.432;2023-04-03T10:11:13;1.20;99.90
11446;DHT22;5779;64.178;15.432;2023-04-03T10:14:02;1.20;99.90
11446;DHT22;5779;64.178;15.432;2023-04-03T10:16:59;1.20;99.90
11446;DHT22;5779;64.178;15.432;2023-04-03T10:19:54;1.50;99.90
11446;DHT22;5779;64.178;15.432;2023-04-03T10:22:49;1.70;99.90
11446;DHT22;5779;64.178;15.432;2023-04-03T10:25:43;2.00;99.90
11446;DHT22;5779;64.178;15.432;2023-04-03T10:28:40;1.90;99.90
11446;DHT22;5779;64.178;15.432;2023-04-03T10:31:37;1.80;99.90
11446;DHT22;5779;64.178;15.432;2023-04-03T10:34:30;1.70;99.90
11446;DHT22;5779;64.178;15.432;2023-04-03T10:37:21;1.80;99.90
11446;DHT22;5779;64.178;15.432;2023-04-03T10:40:19;1.90;99.90
11446;DHT22;5779;64.178;15.432;2023-04-03T10:43:12;1.70;99.90
11446;DHT22;5779;64.178;15.432;2023-04-03T10:46:04;1.70;99.90
11446;DHT22;5779;64.178;15.432;2023-04-03T10:49:08;1.70;99.90
11446;DHT22;5779;64.178;15.432;2023-04-03T10:52:05;1.90;99.90
11446;DHT22;5779;64.178;15.432;2023-04-03T10:55:01;2.20;99.90
11446;DHT22;5779;64.178;15.432;2023-04-03T10:57:49;2.30;99.90
11446;DHT22;5779;64.178;15.432;2023-04-03T11:00:39;2.30;99.80
11446;DHT22;5779;64.178;15.432;2023-04-03T11:03:30;2.10;99.80
11446;DHT22;5779;64.178;15.432;2023-04-03T11:06:19;2.10;99.90
11446;DHT22;5779;64.178;15.432;2023-04-03T11:09:22;2.10;99.90
11446;DHT22;5779;64.178;15.432;2023-04-03T11:12:14;2.30;99.40
11446;DHT22;5779;64.178;15.432;2023-04-03T11:15:03;2.50;99.30
11446;DHT22;5779;64.178;15.432;2023-04-03T11:17:53;2.70;99.60
11446;DHT22;5779;64.178;15.432;2023-04-03T11:20:44;2.90;99.20
11446;DHT22;5779;64.178;15.432;2023-04-03T11:23:36;2.80;99.10
11446;DHT22;5779;64.178;15.432;2023-04-03T11:26:29;3.00;99.00
11446;DHT22;5779;64.178;15.432;2023-04-03T11:29:20;2.80;99.10
11446;DHT22;5779;64.178;15.432;2023-04-03T11:32:23;2.90;99.90
11446;DHT22;5779;64.178;15.432;2023-04-03T11:35:14;2.80;98.80
11446;DHT22;5779;64.178;15.432;2023-04-03T11:38:03;2.10;98.70
11446;DHT22;5779;64.178;15.432;2023-04-03T11:40:53;1.80;99.50
11446;DHT22;5779;64.178;15.432;2023-04-03T11:43:43;1.60;99.70
11446;DHT22;5779;64.178;15.432;2023-04-03T11:46:55;1.60;99.90
11446;DHT22;5779;64.178;15.432;2023-04-03T11:49:56;1.30;99.90
11446;DHT22;5779;64.178;15.432;2023-04-03T11:53:10;1.30;99.90
11446;DHT22;5779;64.178;15.432;2023-04-03T11:56:30;1.30;99.90
11446;DHT22;5779;64.178;15.432;2023-04-03T11:59:23;1.30;99.90
11446;DHT22;5779;64.178;15.432;2023-04-03T12:02:35;1.00;99.90
11446;DHT22;5779;64.178;15.432;2023-04-03T12:05:27;1.00;99.90
11446;DHT22;5779;64.178;15.432;2023-04-03T12:08:24;0.70;99.90
11446;DHT22;5779;64.178;15.432;2023-04-03T12:11:21;0.80;99.90
11446;DHT22;5779;64.178;15.432;2023-04-03T12:14:14;1.00;99.90
11446;DHT22;5779;64.178;15.432;2023-04-03T12:17:15;1.00;99.90
11446;DHT22;5779;64.178;15.432;2023-04-03T12:23:29;1.30;99.90
11446;DHT22;5779;64.178;15.432;2023-04-03T12:26:22;1.50;99.90
11446;DHT22;5779;64.178;15.432;2023-04-03T12:29:17;1.80;99.90
11446;DHT22;5779;64.178;15.432;2023-04-03T12:32:14;2.10;99.90
11446;DHT22;5779;64.178;15.432;2023-04-03T12:35:12;2.30;99.90
11446;DHT22;5779;64.178;15.432;2023-04-03T12:38:25;2.30;99.90
11446;DHT22;5779;64.178;15.432;2023-04-03T12:41:26;2.00;99.90
11446;DHT22;5779;64.178;15.432;2023-04-03T12:44:30;1.80;99.90
11446;DHT22;5779;64.178;15.432;2023-04-03T12:47:29;1.80;99.90
11446;DHT22;5779;64.178;15.432;2023-04-03T12:50:22;1.80;99.90
11446;DHT22;5779;64.178;15.432;2023-04-03T12:53:13;1.90;99.90
11446;DHT22;5779;64.178;15.432;2023-04-03T12:56:21;2.00;99.90
11446;DHT22;5779;64.178;15.432;2023-04-03T12:59:18;2.10;99.90
11446;DHT22;5779;64.178;15.432;2023-04-03T13:02:23;2.30;99.90
11446;DHT22;5779;64.178;15.432;2023-04-03T13:05:16;2.30;99.90
11446;DHT22;5779;64.178;15.432;2023-04-03T13:08:05;2.20;99.90
11446;DHT22;5779;64.178;15.432;2023-04-03T13:10:55;2.30;99.90
11446;DHT22;5779;64.178;15.432;2023-04-03T13:13:55;2.30;99.90
11446;DHT22;5779;64.178;15.432;2023-04-03T13:16:42;2.40;99.70
11446;DHT22;5779;64.178;15.432;2023-04-03T13:19:39;2.50;99.30
11446;DHT22;5779;64.178;15.432;2023-04-03T13:22:31;2.60;99.60
11446;DHT22;5779;64.178;15.432;2023-04-03T13:25:25;2.80;99.50
11446;DHT22;5779;64.178;15.432;2023-04-03T13:28:17;2.80;99.20
11446;DHT22;5779;64.178;15.432;2023-04-03T13:31:08;2.80;99.60
11446;DHT22;5779;64.178;15.432;2023-04-03T13:33:58;2.80;99.90
11446;DHT22;5779;64.178;15.432;2023-04-03T13:36:56;2.90;99.60
11446;DHT22;5779;64.178;15.432;2023-04-03T13:39:45;2.70;99.20
11446;DHT22;5779;64.178;15.432;2023-04-03T13:42:33;2.70;99.90
11446;DHT22;5779;64.178;15.432;2023-04-03T13:45:23;2.60;99.90
11446;DHT22;5779;64.178;15.432;2023-04-03T13:48:18;2.60;99.90
11446;DHT22;5779;64.178;15.432;2023-04-03T13:51:06;2.30;99.90
11446;DHT22;5779;64.178;15.432;2023-04-03T13:54:16;2.30;99.90
11446;DHT22;5779;64.178;15.432;2023-04-03T13:57:13;2.50;99.90
11446;DHT22;5779;64.178;15.432;2023-04-03T14:03:02;2.80;99.90
11446;DHT22;5779;64.178;15.432;2023-04-03T14:05:49;2.90;99.90
11446;DHT22;5779;64.178;15.432;2023-04-03T14:08:36;2.90;99.90
11446;DHT22;5779;64.178;15.432;2023-04-03T14:11:24;2.80;99.90
11446;DHT22;5779;64.178;15.432;2023-04-03T14:14:17;2.80;99.90
11446;DHT22;5779;64.178;15.432;2023-04-03T14:17:13;3.00;99.90
11446;DHT22;5779;64.178;15.432;2023-04-03T14:20:00;3.30;99.90
11446;DHT22;5779;64.178;15.432;2023-04-03T14:22:48;3.50;99.90
11446;DHT22;5779;64.178;15.432;2023-04-03T14:25:36;3.60;99.90
11446;DHT22;5779;64.178;15.432;2023-04-03T14:28:23;3.80;99.90
11446;DHT22;5779;64.178;15.432;2023-04-03T14:31:12;4.10;99.90
11446;DHT22;5779;64.178;15.432;2023-04-03T14:33:59;4.40;99.90
11446;DHT22;5779;64.178;15.432;2023-04-03T14:36:47;4.50;99.90
11446;DHT22;5779;64.178;15.432;2023-04-03T14:39:34;4.40;99.90
11446;DHT22;5779;64.178;15.432;2023-04-03T14:42:24;4.20;99.90
11446;DHT22;5779;64.178;15.432;2023-04-03T14:45:12;4.10;99.90
11446;DHT22;5779;64.178;15.432;2023-04-03T14:48:00;4.20;99.90
11446;DHT22;5779;64.178;15.432;2023-04-03T14:50:49;4.30;99.90
11446;DHT22;5779;64.178;15.432;2023-04-03T14:53:37;4.50;99.90
11446;DHT22;5779;64.178;15.432;2023-04-03T14:56:26;4.20;99.90
11446;DHT22;5779;64.178;15.432;2023-04-03T14:59:14;4.00;99.90
11446;DHT22;5779;64.178;15.432;2023-04-03T15:02:02;4.00;99.90
11446;DHT22;5779;64.178;15.432;2023-04-03T15:04:53;4.30;99.90
11446;DHT22;5779;64.178;15.432;2023-04-03T15:07:42;4.50;99.90
11446;DHT22;5779;64.178;15.432;2023-04-03T15:10:30;4.60;99.90
11446;DHT22;5779;64.178;15.432;2023-04-03T15:13:18;4.80;99.90
11446;DHT22;5779;64.178;15.432;2023-04-03T15:16:04;4.80;99.90
11446;DHT22;5779;64.178;15.432;2023-04-03T15:18:52;4.80;99.90
11446;DHT22;5779;64.178;15.432;2023-04-03T15:21:40;4.60;99.90
11446;DHT22;5779;64.178;15.432;2023-04-03T15:24:27;4.60;99.90
11446;DHT22;5779;64.178;15.432;2023-04-03T15:27:14;4.60;99.90
11446;DHT22;5779;64.178;15.432;2023-04-03T15:30:01;4.20;99.90
11446;DHT22;5779;64.178;15.432;2023-04-03T15:32:48;4.00;99.90
11446;DHT22;5779;64.178;15.432;2023-04-03T15:35:35;3.60;99.90
11446;DHT22;5779;64.178;15.432;2023-04-03T15:38:24;2.90;99.90
11446;DHT22;5779;64.178;15.432;2023-04-03T15:41:10;2.80;99.90
11446;DHT22;5779;64.178;15.432;2023-04-03T15:43:57;2.90;99.90
11446;DHT22;5779;64.178;15.432;2023-04-03T15:46:45;3.10;99.90
11446;DHT22;5779;64.178;15.432;2023-04-03T15:49:33;3.00;99.90
11446;DHT22;5779;64.178;15.432;2023-04-03T15:52:20;2.80;99.90
11446;DHT22;5779;64.178;15.432;2023-04-03T15:55:08;2.70;99.90
11446;DHT22;5779;64.178;15.432;2023-04-03T15:57:55;2.50;99.90
11446;DHT22;5779;64.178;15.432;2023-04-03T16:00:42;2.40;99.90
11446;DHT22;5779;64.178;15.432;2023-04-03T16:03:29;2.60;99.90
11446;DHT22;5779;64.178;15.432;2023-04-03T16:06:17;2.90;99.90
11446;DHT22;5779;64.178;15.432;2023-04-03T16:09:04;3.00;99.90
11446;DHT22;5779;64.178;15.432;2023-04-03T16:11:52;2.80;99.90
11446;DHT22;5779;64.178;15.432;2023-04-03T16:14:39;2.60;99.90
11446;DHT22;5779;64.178;15.432;2023-04-03T16:17:27;2.40;99.90
11446;DHT22;5779;64.178;15.432;2023-04-03T16:20:14;2.30;99.90
11446;DHT22;5779;64.178;15.432;2023-04-03T16:23:01;2.30;99.90
11446;DHT22;5779;64.178;15.432;2023-04-03T16:25:48;2.30;99.90
11446;DHT22;5779;64.178;15.432;2023-04-03T16:28:36;2.40;99.90
11446;DHT22;5779;64.178;15.432;2023-04-03T16:31:24;2.30;99.90
11446;DHT22;5779;64.178;15.432;2023-04-03T16:34:11;2.20;99.90
11446;DHT22;5779;64.178;15.432;2023-04-03T16:36:59;2.30;99.90
11446;DHT22;5779;64.178;15.432;2023-04-03T16:39:45;2.20;99.90
11446;DHT22;5779;64.178;15.432;2023-04-03T16:42:32;2.30;99.90
11446;DHT22;5779;64.178;15.432;2023-04-03T16:45:20;2.30;99.90
11446;DHT22;5779;64.178;15.432;2023-04-03T16:48:07;2.20;99.90
11446;DHT22;5779;64.178;15.432;2023-04-03T16:50:54;2.10;99.90
11446;DHT22;5779;64.178;15.432;2023-04-03T16:53:41;1.90;99.90
11446;DHT22;5779;64.178;15.432;2023-04-03T16:56:28;1.70;99.90
11446;DHT22;5779;64.178;15.432;2023-04-03T16:59:15;1.60;99.90
11446;DHT22;5779;64.178;15.432;2023-04-03T17:02:03;1.60;99.90
11446;DHT22;5779;64.178;15.432;2023-04-03T17:04:50;1.90;99.90
11446;DHT22;5779;64.178;15.432;2023-04-03T17:07:37;2.10;99.90
11446;DHT22;5779;64.178;15.432;2023-04-03T17:10:25;2.00;99.90
11446;DHT22;5779;64.178;15.432;2023-04-03T17:13:12;1.80;99.90
11446;DHT22;5779;64.178;15.432;2023-04-03T17:16:00;1.80;99.90
11446;DHT22;5779;64.178;15.432;2023-04-03T17:18:52;1.90;99.90
11446;DHT22;5779;64.178;15.432;2023-04-03T17:21:39;2.00;99.90
11446;DHT22;5779;64.178;15.432;2023-04-03T17:24:26;2.10;99.90
11446;DHT22;5779;64.178;15.432;2023-04-03T17:27:13;2.30;99.90
11446;DHT22;5779;64.178;15.432;2023-04-03T17:30:00;2.40;99.90
11446;DHT22;5779;64.178;15.432;2023-04-03T17:32:47;2.40;99.90
11446;DHT22;5779;64.178;15.432;2023-04-03T17:35:35;2.50;99.90
11446;DHT22;5779;64.178;15.432;2023-04-03T17:38:21;2.60;99.90
11446;DHT22;5779;64.178;15.432;2023-04-03T17:41:08;2.60;99.90
11446;DHT22;5779;64.178;15.432;2023-04-03T17:43:55;2.60;99.90
11446;DHT22;5779;64.178;15.432;2023-04-03T17:46:42;2.30;99.90
11446;DHT22;5779;64.178;15.432;2023-04-03T17:49:29;1.90;99.90
11446;DHT22;5779;64.178;15.432;2023-04-03T17:52:19;1.80;99.90
11446;DHT22;5779;64.178;15.432;2023-04-03T17:55:08;1.60;99.90
11446;DHT22;5779;64.178;15.432;2023-04-03T17:57:55;1.60;99.90
11446;DHT22;5779;64.178;15.432;2023-04-03T18:00:42;1.70;99.90